Goldfield, Iowa
Current Conditions -  °F | °C
As of 12:35 PM on Thursday 30 Oct 2014 (Local Time) from KCAV Reporting Station
Scattered Clouds Scattered Clouds  
Wind Chill: 54°   Ceiling: Unl
Heat Index: 54°   Visibility: 10mi
Dew Point: 37°   Wind: 5mph
Humidity: 54%   Direction: NA
Pressure: 30.03"   Gusts: NA
Location:  42.74°N, 93.92°W
Report Text: KCAV 301735Z AUTO VRB04KT 10SM FEW080 SCT095 SCT110 12/03 A3003 RMK AO2
Loading
Personal Weather Stations






























Interactive Weather Map
Tropical Storm Tracking
New forecast layout! Learn more

10-Day Weather Forecast

Advertisements
Track Severe Weather on mobile